createdAt,value
2017-08-17T00:01:49.430Z,14.37
2017-08-17T00:04:17.724Z,15.13
2017-08-17T00:06:46.085Z,15.77
2017-08-17T00:09:14.376Z,16.03
2017-08-17T00:11:42.710Z,17.13
2017-08-17T00:14:11.037Z,17.80
2017-08-17T00:16:39.349Z,17.43
2017-08-17T00:19:07.769Z,17.90
2017-08-17T00:21:36.093Z,16.50
2017-08-17T00:24:05.244Z,19.70
2017-08-17T00:26:33.581Z,16.97
2017-08-17T00:29:01.910Z,16.57
2017-08-17T00:31:30.385Z,15.47
2017-08-17T00:33:58.700Z,15.93
2017-08-17T00:36:27.764Z,18.17
2017-08-17T00:38:56.081Z,18.57
2017-08-17T00:41:24.425Z,18.10
2017-08-17T00:43:52.730Z,17.07
2017-08-17T00:46:21.795Z,13.60
2017-08-17T00:48:50.118Z,16.37
2017-08-17T00:51:18.421Z,16.13
2017-08-17T00:53:46.727Z,16.97
2017-08-17T00:56:15.088Z,15.43
2017-08-17T00:58:43.464Z,15.40
2017-08-17T01:01:11.852Z,16.63
2017-08-17T01:03:40.170Z,15.70
2017-08-17T01:06:09.331Z,18.27
2017-08-17T01:08:37.642Z,15.63
2017-08-17T01:11:06.810Z,18.20
2017-08-17T01:13:35.186Z,16.50
2017-08-17T01:16:03.502Z,16.37
2017-08-17T01:18:31.841Z,15.77
2017-08-17T01:21:00.146Z,15.90
2017-08-17T01:23:29.311Z,15.90
2017-08-17T01:25:57.685Z,16.07
2017-08-17T01:28:26.000Z,16.03
2017-08-17T01:30:55.061Z,15.70
2017-08-17T01:33:23.364Z,16.73
2017-08-17T01:35:52.529Z,16.03
2017-08-17T01:38:20.923Z,17.53
2017-08-17T01:40:49.244Z,21.70
2017-08-17T01:43:17.567Z,17.97
2017-08-17T01:45:45.876Z,22.47
2017-08-17T01:48:15.039Z,19.50
2017-08-17T01:50:43.352Z,21.17
2017-08-17T01:53:12.417Z,21.67
2017-08-17T01:55:40.724Z,20.87
2017-08-17T01:58:09.790Z,22.00
2017-08-17T02:00:38.100Z,22.77
2017-08-17T02:03:07.185Z,20.63
2017-08-17T02:05:36.292Z,20.73
2017-08-17T02:08:05.454Z,19.77
2017-08-17T02:10:33.757Z,18.57
2017-08-17T02:13:02.829Z,17.90
2017-08-17T02:15:31.211Z,21.10
2017-08-17T02:17:59.547Z,19.17
2017-08-17T02:20:27.862Z,20.70
2017-08-17T02:22:56.185Z,19.40
2017-08-17T02:25:24.498Z,20.80
2017-08-17T02:27:52.818Z,21.57
2017-08-17T02:30:21.982Z,23.17
2017-08-17T02:32:50.293Z,22.17
2017-08-17T02:35:19.482Z,23.17
2017-08-17T02:37:47.813Z,20.27
2017-08-17T02:40:16.217Z,19.67
2017-08-17T02:42:44.551Z,18.27
2017-08-17T02:45:12.873Z,14.70
2017-08-17T02:47:41.323Z,14.13
2017-08-17T02:50:09.650Z,16.50
2017-08-17T02:52:38.010Z,17.17
2017-08-17T02:55:06.341Z,15.80
2017-08-17T02:57:34.666Z,15.33
2017-08-17T03:00:03.063Z,15.80
2017-08-17T03:02:31.380Z,15.50
2017-08-17T03:04:59.710Z,15.00
2017-08-17T03:07:28.082Z,16.10
2017-08-17T03:09:56.463Z,14.97
2017-08-17T03:12:24.765Z,17.40
2017-08-17T03:14:53.938Z,18.57
2017-08-17T03:17:22.275Z,20.10
2017-08-17T03:19:50.585Z,20.77
2017-08-17T03:22:18.901Z,23.80
2017-08-17T03:24:48.061Z,24.97
2017-08-17T03:27:16.373Z,23.50
2017-08-17T03:29:45.538Z,26.30
2017-08-17T03:32:13.923Z,22.87
2017-08-17T03:34:42.228Z,21.97
2017-08-17T03:37:11.322Z,22.20
2017-08-17T03:39:40.385Z,21.73
2017-08-17T03:42:08.684Z,25.10
2017-08-17T03:44:37.853Z,23.47
2017-08-17T03:47:06.231Z,23.63
2017-08-17T03:49:34.609Z,23.03
2017-08-17T03:52:02.936Z,27.87
2017-08-17T03:54:31.277Z,28.00
2017-08-17T03:56:59.657Z,26.30
2017-08-17T03:59:28.021Z,27.17
2017-08-17T04:01:56.403Z,27.60
2017-08-17T04:04:24.786Z,30.80
2017-08-17T04:06:53.098Z,28.27
2017-08-17T04:09:22.187Z,28.33
2017-08-17T04:11:51.354Z,24.20
2017-08-17T04:14:19.730Z,27.47
2017-08-17T04:16:48.109Z,24.23
2017-08-17T04:19:16.429Z,27.23
2017-08-17T04:21:45.540Z,25.33
2017-08-17T04:24:13.850Z,25.00
2017-08-17T04:26:42.260Z,23.43
2017-08-17T04:29:10.567Z,26.30
2017-08-17T04:31:38.882Z,24.33
2017-08-17T04:34:07.185Z,24.63
2017-08-17T04:36:35.522Z,26.43
2017-08-17T04:39:03.933Z,24.80
2017-08-17T04:41:32.305Z,22.20
2017-08-17T04:44:00.629Z,23.93
2017-08-17T04:46:28.965Z,26.40
2017-08-17T04:48:57.345Z,25.70
2017-08-17T04:51:25.723Z,25.87
2017-08-17T04:53:54.118Z,23.30
2017-08-17T04:56:46.585Z,21.47
2017-08-17T04:59:14.901Z,20.67
2017-08-17T05:01:43.205Z,24.40
2017-08-17T05:04:11.534Z,21.80
2017-08-17T05:06:40.054Z,21.30
2017-08-17T05:09:08.360Z,22.67
2017-08-17T05:11:37.529Z,26.43
2017-08-17T05:14:05.841Z,23.20
2017-08-17T05:16:34.945Z,25.60
2017-08-17T05:19:04.017Z,21.20
2017-08-17T05:21:32.333Z,23.37
2017-08-17T05:24:00.641Z,23.00
2017-08-17T05:26:28.983Z,23.30
2017-08-17T05:28:57.310Z,20.60
2017-08-17T05:31:25.616Z,23.27
2017-08-17T05:33:54.783Z,23.83
2017-08-17T05:36:23.094Z,22.80
2017-08-17T05:38:52.169Z,18.80
2017-08-17T05:41:20.478Z,22.87
2017-08-17T05:43:48.790Z,22.27
2017-08-17T05:46:17.113Z,21.60
2017-08-17T05:48:46.196Z,20.87
2017-08-17T05:51:14.561Z,18.37
2017-08-17T05:53:42.872Z,18.53
2017-08-17T05:56:11.938Z,17.97
2017-08-17T05:58:40.309Z,19.63
2017-08-17T06:01:08.614Z,18.00
2017-08-17T06:03:37.792Z,19.63
2017-08-17T06:06:06.130Z,18.50
2017-08-17T06:08:34.438Z,17.30
2017-08-17T06:11:02.774Z,17.70
2017-08-17T06:13:31.079Z,18.70
2017-08-17T06:15:59.474Z,17.50
2017-08-17T06:18:27.866Z,17.73
2017-08-17T06:20:56.195Z,17.27
2017-08-17T06:23:24.514Z,17.30
2017-08-17T06:25:52.838Z,17.40
2017-08-17T06:28:21.144Z,16.10
2017-08-17T06:30:49.461Z,15.70
2017-08-17T06:33:17.822Z,15.57
2017-08-17T06:35:46.510Z,17.93
2017-08-17T06:38:14.818Z,16.97
2017-08-17T06:40:43.896Z,14.50
2017-08-17T06:43:12.211Z,16.37
2017-08-17T06:45:40.537Z,18.60
2017-08-17T06:48:08.909Z,16.40
2017-08-17T06:50:37.217Z,15.67
2017-08-17T06:53:06.302Z,15.53
2017-08-17T06:55:34.665Z,15.00
2017-08-17T06:58:03.058Z,14.47
2017-08-17T07:00:31.374Z,14.73
2017-08-17T07:02:59.697Z,14.70
2017-08-17T07:05:28.077Z,16.23
2017-08-17T07:07:56.385Z,14.33
2017-08-17T07:10:25.470Z,15.47
2017-08-17T07:12:54.537Z,15.17
2017-08-17T07:15:22.922Z,15.63
2017-08-17T07:17:52.250Z,14.20
2017-08-17T07:20:21.434Z,15.10
2017-08-17T07:22:49.741Z,15.60
2017-08-17T07:25:18.069Z,13.53
2017-08-17T07:27:46.449Z,13.60
2017-08-17T07:30:14.836Z,13.83
2017-08-17T07:32:43.221Z,13.93
2017-08-17T07:35:11.525Z,14.20
2017-08-17T07:37:40.677Z,13.10
2017-08-17T07:40:09.070Z,14.00
2017-08-17T07:42:37.388Z,12.77
2017-08-17T07:45:05.705Z,12.03
2017-08-17T07:47:34.093Z,12.97
2017-08-17T07:50:02.400Z,12.00
2017-08-17T07:52:31.502Z,11.97
2017-08-17T07:55:00.669Z,10.97
2017-08-17T07:57:29.054Z,11.80
2017-08-17T07:59:57.423Z,10.30
2017-08-17T08:02:25.802Z,8.90
2017-08-17T08:04:54.114Z,8.13
2017-08-17T08:07:23.285Z,8.80
2017-08-17T08:09:51.661Z,8.33
2017-08-17T08:12:19.977Z,8.00
2017-08-17T08:14:48.317Z,9.37
2017-08-17T08:17:16.690Z,9.30
2017-08-17T08:19:45.069Z,7.67
2017-08-17T08:22:13.412Z,9.07
2017-08-17T08:24:41.746Z,8.37
2017-08-17T08:27:10.927Z,9.50
2017-08-17T08:29:39.242Z,8.80
2017-08-17T08:32:07.589Z,7.00
2017-08-17T08:34:35.954Z,6.03
2017-08-17T08:37:04.277Z,5.97
2017-08-17T08:39:32.574Z,6.23
2017-08-17T08:42:00.897Z,6.60
2017-08-17T08:44:29.198Z,7.20
2017-08-17T08:46:58.287Z,6.20
2017-08-17T08:49:27.354Z,7.10
2017-08-17T08:51:55.732Z,7.47
2017-08-17T08:54:24.122Z,7.37
2017-08-17T08:56:52.486Z,7.77
2017-08-17T08:59:20.792Z,6.23
2017-08-17T09:01:49.858Z,6.10
2017-08-17T09:04:18.166Z,6.63
2017-08-17T09:06:47.338Z,7.10
2017-08-17T09:09:15.654Z,7.67
2017-08-17T09:11:43.987Z,7.80
2017-08-17T09:14:12.368Z,7.63
2017-08-17T09:16:40.669Z,6.40
2017-08-17T09:19:09.040Z,6.60
2017-08-17T09:21:37.402Z,6.53
2017-08-17T09:24:05.782Z,7.10
2017-08-17T09:26:34.086Z,6.13
2017-08-17T09:29:03.178Z,5.70
2017-08-17T09:31:32.246Z,5.43
2017-08-17T09:34:00.658Z,6.13
2017-08-17T09:36:29.838Z,6.63
2017-08-17T09:38:58.213Z,5.77
2017-08-17T09:41:26.591Z,5.90
2017-08-17T09:43:54.955Z,5.87
2017-08-17T09:46:23.258Z,6.00
2017-08-17T09:48:51.548Z,6.40
2017-08-17T09:51:20.694Z,5.50
2017-08-17T09:53:48.995Z,6.37
2017-08-17T09:56:17.304Z,6.33
2017-08-17T09:58:46.399Z,7.10
2017-08-17T10:01:15.497Z,10.13
2017-08-17T10:03:44.654Z,8.30
2017-08-17T10:06:13.035Z,8.23
2017-08-17T10:08:41.345Z,7.90
2017-08-17T10:11:10.413Z,7.17
2017-08-17T10:13:38.782Z,9.00
2017-08-17T10:16:07.170Z,7.90
2017-08-17T10:18:35.538Z,7.70
2017-08-17T10:21:03.851Z,7.70
2017-08-17T10:23:33.014Z,5.57
2017-08-17T10:26:01.315Z,8.17
2017-08-17T10:28:29.679Z,6.57
2017-08-17T10:30:57.984Z,6.70
2017-08-17T10:33:27.075Z,5.20
2017-08-17T10:35:56.145Z,5.87
2017-08-17T10:38:24.514Z,5.10
2017-08-17T10:40:52.903Z,4.80
2017-08-17T10:43:21.386Z,4.73
2017-08-17T10:45:49.750Z,2.90
2017-08-17T10:48:18.050Z,4.07
2017-08-17T10:50:46.419Z,4.10
2017-08-17T10:53:14.717Z,3.73
2017-08-17T10:55:43.839Z,3.90
2017-08-17T10:58:12.148Z,3.70
2017-08-17T11:00:40.446Z,3.83
2017-08-17T11:03:08.820Z,4.10
2017-08-17T11:05:37.202Z,4.40
2017-08-17T11:08:05.644Z,3.63
2017-08-17T11:10:34.156Z,5.50
2017-08-17T11:13:02.538Z,4.57
2017-08-17T11:15:30.918Z,4.87
2017-08-17T11:17:59.238Z,5.60
2017-08-17T11:20:27.554Z,4.53
2017-08-17T11:22:55.858Z,5.13
2017-08-17T11:25:24.225Z,3.97
2017-08-17T11:27:52.541Z,4.80
2017-08-17T11:30:21.601Z,4.83
2017-08-17T11:32:49.914Z,5.70
2017-08-17T11:35:18.236Z,5.30
2017-08-17T11:37:46.571Z,7.17
2017-08-17T11:40:14.874Z,5.57
2017-08-17T11:42:43.171Z,5.67
2017-08-17T11:45:11.488Z,7.93
2017-08-17T11:47:40.554Z,5.53
2017-08-17T11:50:08.928Z,4.70
2017-08-17T11:52:37.226Z,6.17
2017-08-17T11:55:05.595Z,5.43
2017-08-17T11:57:33.893Z,5.50
2017-08-17T12:00:02.966Z,4.93
2017-08-17T12:02:31.342Z,4.87
2017-08-17T12:04:59.700Z,5.33
2017-08-17T12:07:28.096Z,5.17
2017-08-17T12:09:56.475Z,6.13
2017-08-17T12:12:24.785Z,4.80
2017-08-17T12:14:53.952Z,4.00
2017-08-17T12:17:22.326Z,3.20
2017-08-17T12:19:50.641Z,3.90
2017-08-17T12:22:19.803Z,4.57
2017-08-17T12:24:48.183Z,4.00
2017-08-17T12:27:16.632Z,4.00
2017-08-17T12:29:44.941Z,5.93
2017-08-17T12:32:13.242Z,6.27
2017-08-17T12:34:42.409Z,4.60
2017-08-17T12:37:10.705Z,4.60
2017-08-17T12:39:39.014Z,3.20
2017-08-17T12:42:07.346Z,2.80
2017-08-17T12:44:35.661Z,2.83
2017-08-17T12:47:04.759Z,3.07
2017-08-17T12:49:34.023Z,2.77
2017-08-17T12:52:02.429Z,3.00
2017-08-17T12:54:31.645Z,2.97
2017-08-17T12:56:59.978Z,2.80
2017-08-17T12:59:28.329Z,2.87
2017-08-17T13:01:56.630Z,2.70
2017-08-17T13:04:25.014Z,2.80
2017-08-17T13:06:53.388Z,2.57
2017-08-17T13:09:21.685Z,3.20
2017-08-17T13:11:50.863Z,2.93
2017-08-17T13:14:19.173Z,2.60
2017-08-17T13:16:48.329Z,3.10
2017-08-17T13:19:16.707Z,3.10
2017-08-17T13:21:45.086Z,3.60
2017-08-17T13:24:13.464Z,3.80
2017-08-17T13:26:41.762Z,2.80
2017-08-17T13:29:10.064Z,3.90
2017-08-17T13:31:39.134Z,3.37
2017-08-17T13:34:07.450Z,3.30
2017-08-17T13:36:35.769Z,3.57
2017-08-17T13:39:04.085Z,3.23
2017-08-17T13:41:33.140Z,3.60
2017-08-17T13:44:01.482Z,3.93
2017-08-17T13:46:29.778Z,4.10
2017-08-17T13:48:58.079Z,2.90
2017-08-17T13:51:26.448Z,3.50
2017-08-17T13:53:54.755Z,3.53
2017-08-17T13:56:23.839Z,3.10
2017-08-17T13:58:52.143Z,3.17
2017-08-17T14:01:21.302Z,3.10
2017-08-17T14:03:49.675Z,3.73
2017-08-17T14:06:18.057Z,3.60
2017-08-17T14:08:46.353Z,3.23
2017-08-17T14:11:14.670Z,3.67
2017-08-17T14:13:42.982Z,3.27
2017-08-17T14:16:11.376Z,3.70
2017-08-17T14:18:39.751Z,3.70
2017-08-17T14:21:08.126Z,3.20
2017-08-17T14:23:36.514Z,3.30
2017-08-17T14:26:04.828Z,3.23
2017-08-17T14:28:33.160Z,4.00
2017-08-17T14:31:01.454Z,3.20
2017-08-17T14:33:29.781Z,3.90
2017-08-17T14:35:58.077Z,3.20
2017-08-17T14:38:26.394Z,3.63
2017-08-17T14:40:55.565Z,3.30
2017-08-17T14:43:23.871Z,3.50
2017-08-17T14:45:53.043Z,3.50
2017-08-17T14:48:21.377Z,3.20
2017-08-17T14:50:49.674Z,3.70
2017-08-17T14:53:17.977Z,4.30
2017-08-17T14:55:46.349Z,5.20
2017-08-17T14:58:14.650Z,5.33
2017-08-17T15:00:43.732Z,4.40
2017-08-17T15:03:12.101Z,5.40
2017-08-17T15:05:40.482Z,4.97
2017-08-17T15:08:08.862Z,4.07
2017-08-17T15:10:37.245Z,3.40
2017-08-17T15:13:05.618Z,3.13
2017-08-17T15:15:33.994Z,3.27
2017-08-17T15:18:02.289Z,3.70
2017-08-17T15:20:30.619Z,4.13
2017-08-17T15:22:58.922Z,5.50
2017-08-17T15:25:27.317Z,6.17
2017-08-17T15:27:55.629Z,5.87
2017-08-17T15:30:23.982Z,4.87
2017-08-17T15:32:52.344Z,4.40
2017-08-17T15:35:20.658Z,4.40
2017-08-17T15:37:49.823Z,4.50
2017-08-17T15:40:18.186Z,4.27
2017-08-17T15:42:46.572Z,4.60
2017-08-17T15:45:14.955Z,4.23
2017-08-17T15:47:43.351Z,4.50
2017-08-17T15:50:11.708Z,4.67
2017-08-17T15:52:40.087Z,4.40
2017-08-17T15:55:08.468Z,4.20
2017-08-17T15:57:36.855Z,4.13
2017-08-17T16:00:05.227Z,3.30
2017-08-17T16:02:33.605Z,3.70
2017-08-17T16:05:01.988Z,3.83
2017-08-17T16:07:30.291Z,4.20
2017-08-17T16:09:59.366Z,3.70
2017-08-17T16:12:27.676Z,4.00
2017-08-17T16:14:56.002Z,3.93
2017-08-17T16:17:24.297Z,3.83
2017-08-17T16:19:52.665Z,3.27
2017-08-17T16:22:20.982Z,3.70
2017-08-17T16:24:50.155Z,3.90
2017-08-17T16:27:18.485Z,4.30
2017-08-17T16:29:46.782Z,3.30
2017-08-17T16:32:15.093Z,4.07
2017-08-17T16:34:43.393Z,3.60
2017-08-17T16:37:11.723Z,3.80
2017-08-17T16:39:40.039Z,3.57
2017-08-17T16:42:09.210Z,4.83
2017-08-17T16:44:37.518Z,4.50
2017-08-17T16:47:06.587Z,4.03
2017-08-17T16:49:34.957Z,4.30
2017-08-17T16:52:03.249Z,4.30
2017-08-17T16:54:31.606Z,3.70
2017-08-17T16:56:59.978Z,4.30
2017-08-17T16:59:28.286Z,4.00
2017-08-17T17:01:57.350Z,4.40
2017-08-17T17:04:25.738Z,3.73
2017-08-17T17:06:54.109Z,4.47
2017-08-17T17:09:22.451Z,4.73
2017-08-17T17:11:50.766Z,5.27
2017-08-17T17:14:19.142Z,4.87
2017-08-17T17:16:47.529Z,4.40
2017-08-17T17:19:15.828Z,3.83
2017-08-17T17:21:44.973Z,4.00
2017-08-17T17:24:13.382Z,4.00
2017-08-17T17:26:42.374Z,4.73
2017-08-17T17:29:10.691Z,3.33
2017-08-17T17:31:39.025Z,3.23
2017-08-17T17:34:07.326Z,2.43
2017-08-17T17:36:35.661Z,2.60
2017-08-17T17:39:03.969Z,3.23
2017-08-17T17:41:32.269Z,3.40
2017-08-17T17:44:01.430Z,3.50
2017-08-17T17:46:29.733Z,4.17
2017-08-17T17:48:58.041Z,4.80
2017-08-17T17:51:26.337Z,4.20
2017-08-17T17:53:54.638Z,3.70
2017-08-17T17:56:22.934Z,3.87
2017-08-17T17:58:51.241Z,4.03
2017-08-17T18:01:19.538Z,5.07
2017-08-17T18:03:47.833Z,4.80
2017-08-17T18:06:16.141Z,4.50
2017-08-17T18:09:13.034Z,4.57
2017-08-17T18:11:41.351Z,4.67
2017-08-17T18:14:09.656Z,5.50
2017-08-17T18:16:38.745Z,4.50
2017-08-17T18:19:07.805Z,4.50
2017-08-17T18:21:36.122Z,5.80
2017-08-17T18:24:05.194Z,4.87
2017-08-17T18:26:33.534Z,4.90
2017-08-17T18:29:01.845Z,5.23
2017-08-17T18:31:30.150Z,5.17
2017-08-17T18:33:59.208Z,5.10
2017-08-17T18:36:27.517Z,4.17
2017-08-17T18:38:55.814Z,4.90
2017-08-17T18:41:24.122Z,4.70
2017-08-17T18:43:52.421Z,4.70
2017-08-17T18:46:20.723Z,6.03
2017-08-17T18:48:49.840Z,4.97
2017-08-17T18:51:18.901Z,5.20
2017-08-17T18:53:47.209Z,5.50
2017-08-17T18:56:16.302Z,4.50
2017-08-17T18:58:45.382Z,4.83
2017-08-17T19:01:14.493Z,4.90
2017-08-17T19:03:43.578Z,5.60
2017-08-17T19:06:12.649Z,4.80
2017-08-17T19:08:40.954Z,5.63
2017-08-17T19:11:10.021Z,5.00
2017-08-17T19:13:38.325Z,5.43
2017-08-17T19:16:06.627Z,5.40
2017-08-17T19:18:34.930Z,4.63
2017-08-17T19:21:03.244Z,5.30
2017-08-17T19:23:31.545Z,5.33
2017-08-17T19:26:00.715Z,5.00
2017-08-17T19:28:29.020Z,5.57
2017-08-17T19:30:57.450Z,6.63
2017-08-17T19:33:25.770Z,6.90
2017-08-17T19:35:54.938Z,6.00
2017-08-17T19:38:23.236Z,6.20
2017-08-17T19:40:52.300Z,5.17
2017-08-17T19:43:20.607Z,5.60
2017-08-17T19:45:49.717Z,6.50
2017-08-17T19:48:18.061Z,6.80
2017-08-17T19:50:46.434Z,6.43
2017-08-17T19:53:14.751Z,7.83
2017-08-17T19:55:43.909Z,7.63
2017-08-17T19:58:12.284Z,7.47
2017-08-17T20:00:40.585Z,8.00
2017-08-17T20:03:08.901Z,8.80
2017-08-17T20:05:37.222Z,8.07
2017-08-17T20:08:05.533Z,7.70
2017-08-17T20:10:33.864Z,7.60
2017-08-17T20:13:02.321Z,7.80
2017-08-17T20:15:30.621Z,6.30
2017-08-17T20:17:58.929Z,8.13
2017-08-17T20:20:27.292Z,7.27
2017-08-17T20:22:55.658Z,7.37
2017-08-17T20:25:23.970Z,8.07
2017-08-17T20:27:53.238Z,7.10
2017-08-17T20:30:21.622Z,7.67
2017-08-17T20:32:49.922Z,7.90
2017-08-17T20:35:19.025Z,6.00
2017-08-17T20:37:48.099Z,7.53
2017-08-17T20:40:16.518Z,7.20
2017-08-17T20:42:44.813Z,6.97
2017-08-17T20:45:13.130Z,8.37
2017-08-17T20:47:41.611Z,8.47
2017-08-17T20:50:09.982Z,7.63
2017-08-17T20:52:38.291Z,8.70
2017-08-17T20:55:07.459Z,7.97
2017-08-17T20:57:35.832Z,7.53
2017-08-17T21:00:04.211Z,7.67
2017-08-17T21:02:32.598Z,6.70
2017-08-17T21:05:00.914Z,7.43
2017-08-17T21:07:29.221Z,7.63
2017-08-17T21:09:57.530Z,6.30
2017-08-17T21:12:25.859Z,7.10
2017-08-17T21:14:54.171Z,8.30
2017-08-17T21:17:22.474Z,7.67
2017-08-17T21:19:50.782Z,7.20
2017-08-17T21:22:19.085Z,6.20
2017-08-17T21:24:47.401Z,6.43
2017-08-17T21:27:15.727Z,7.00
2017-08-17T21:29:44.148Z,5.50
2017-08-17T21:32:12.518Z,5.80
2017-08-17T21:34:40.922Z,6.13
2017-08-17T21:37:09.292Z,6.00
2017-08-17T21:39:37.670Z,5.57
2017-08-17T21:42:05.988Z,5.57
2017-08-17T21:44:34.324Z,5.93
2017-08-17T21:47:02.691Z,5.80
2017-08-17T21:49:31.066Z,5.93
2017-08-17T21:51:59.461Z,5.40
2017-08-17T21:54:27.771Z,5.90
2017-08-17T21:56:56.102Z,5.50
2017-08-17T21:59:24.405Z,5.57
2017-08-17T22:01:53.562Z,5.03
2017-08-17T22:04:21.955Z,5.73
2017-08-17T22:06:50.335Z,5.27
2017-08-17T22:09:18.657Z,5.30
2017-08-17T22:11:46.974Z,5.47
2017-08-17T22:14:15.274Z,5.00
2017-08-17T22:16:43.586Z,5.60
2017-08-17T22:19:11.889Z,5.03
2017-08-17T22:21:40.218Z,5.70
2017-08-17T22:24:09.294Z,6.13
2017-08-17T22:26:37.610Z,6.40
2017-08-17T22:29:05.923Z,6.30
2017-08-17T22:31:34.224Z,5.63
2017-08-17T22:34:02.548Z,6.47
2017-08-17T22:36:30.841Z,6.53
2017-08-17T22:38:59.154Z,6.10
2017-08-17T22:41:27.525Z,5.73
2017-08-17T22:43:55.842Z,5.47
2017-08-17T22:46:24.149Z,5.33
2017-08-17T22:48:52.465Z,6.03
2017-08-17T22:51:20.771Z,5.70
2017-08-17T22:53:49.122Z,6.80
2017-08-17T22:56:17.426Z,6.07
2017-08-17T22:58:45.743Z,6.73
2017-08-17T23:01:14.107Z,5.70
2017-08-17T23:03:42.412Z,5.60
2017-08-17T23:06:10.729Z,5.80
2017-08-17T23:08:39.788Z,5.70
2017-08-17T23:11:08.098Z,5.93
2017-08-17T23:13:37.170Z,5.13
2017-08-17T23:16:05.477Z,6.00
2017-08-17T23:18:34.539Z,5.70
2017-08-17T23:21:02.858Z,5.50
2017-08-17T23:23:31.162Z,6.30
2017-08-17T23:25:59.575Z,4.97
2017-08-17T23:28:27.951Z,5.00
2017-08-17T23:30:56.329Z,4.30
2017-08-17T23:33:24.653Z,4.50
2017-08-17T23:35:52.973Z,4.40
2017-08-17T23:38:21.278Z,4.50
2017-08-17T23:40:49.579Z,3.80
2017-08-17T23:43:17.885Z,3.83
2017-08-17T23:45:46.186Z,3.80
2017-08-17T23:48:14.493Z,3.83
2017-08-17T23:50:43.565Z,3.20
2017-08-17T23:53:11.873Z,3.00
2017-08-17T23:55:40.934Z,3.23
2017-08-17T23:58:09.266Z,3.63
